Time;durP1;ratioP1;P1;durP2;ratioP2;P2;SDS_P1;SDS_P2;PMS_P1;PMS_P2;Temp;Humidity;BMP_temperature;BMP_pressure;BME280_temperature;BME280_humidity;BME280_pressure;Samples;Min_cycle;Max_cycle;Signal;HPM_P1;HPM_P2
2022/09/22 00:01:29;;;;;;;5.35;4.30;;;;;;;12.44;100.00;96990.66;5100322;28;20071;-56
2022/09/22 00:04:00;;;;;;;5.63;4.28;;;;;;;12.71;100.00;96979.28;5109127;27;20137;-57
2022/09/22 00:06:30;;;;;;;7.18;4.70;;;;;;;12.87;100.00;96981.34;5101039;27;20128;-54
2022/09/22 00:09:01;;;;;;;6.38;4.40;;;;;;;12.57;100.00;96977.94;5102364;27;20083;-56
2022/09/22 00:11:30;;;;;;;;;;;;;;;12.94;100.00;96978.91;5107075;27;20083;-50
2022/09/22 00:14:00;;;;;;;5.78;4.57;;;;;;;13.06;100.00;96980.41;5104143;28;19974;-57
2022/09/22 00:16:30;;;;;;;6.90;4.35;;;;;;;13.22;100.00;96985.06;5099692;28;20090;-54
2022/09/22 00:18:59;;;;;;;4.53;3.80;;;;;;;13.18;100.00;96984.53;5101080;28;20083;-57
2022/09/22 00:21:29;;;;;;;4.03;3.63;;;;;;;12.98;100.00;96980.31;5103570;27;20079;-53
2022/09/22 00:23:57;;;;;;;;;;;;;;;12.97;100.00;96987.41;5096988;28;20083;-53
2022/09/22 00:26:27;;;;;;;4.10;3.40;;;;;;;12.91;100.00;96989.81;5102708;28;19962;-57
2022/09/22 00:28:55;;;;;;;5.70;4.23;;;;;;;12.86;100.00;96978.81;5095035;28;20631;-57
2022/09/22 00:31:25;;;;;;;4.78;4.20;;;;;;;12.27;100.00;96976.34;5105323;28;20512;-54
2022/09/22 00:33:54;;;;;;;5.75;5.13;;;;;;;12.36;100.00;96977.31;5101656;28;20084;-55
2022/09/22 00:36:24;;;;;;;6.90;4.10;;;;;;;12.06;100.00;96968.59;5096551;28;20122;-57
2022/09/22 00:38:54;;;;;;;5.53;4.53;;;;;;;12.22;100.00;96962.75;5103759;28;20079;-55
2022/09/22 00:41:24;;;;;;;5.50;4.40;;;;;;;12.10;100.00;96962.03;5094182;28;20076;-55
2022/09/22 00:44:31;;;;;;;5.53;4.40;;;;;;;12.61;100.00;96952.03;5096692;28;20495;-55
2022/09/22 00:47:05;;;;;;;5.22;4.28;;;;;;;12.36;100.00;96948.22;5081922;28;20581;-52
2022/09/22 00:49:38;;;;;;;6.10;3.95;;;;;;;12.74;100.00;96949.91;5099068;28;20096;-56
2022/09/22 00:52:07;;;;;;;5.20;4.05;;;;;;;12.74;100.00;96959.66;5104411;28;20090;-57
2022/09/22 00:54:35;;;;;;;9.55;4.30;;;;;;;12.37;100.00;96959.63;5100243;28;20067;-55
2022/09/22 00:57:10;;;;;;;7.07;3.83;;;;;;;12.59;100.00;96952.19;5109679;28;20098;-54
2022/09/22 00:59:39;;;;;;;5.28;3.50;;;;;;;12.50;100.00;96952.22;5095944;28;20078;-54
2022/09/22 01:02:08;;;;;;;6.00;4.40;;;;;;;12.05;100.00;96948.44;5103273;28;20071;-55
2022/09/22 01:04:37;;;;;;;4.20;3.78;;;;;;;11.99;100.00;96951.63;5101678;28;20573;-52
2022/09/22 01:07:06;;;;;;;4.13;3.55;;;;;;;11.75;100.00;96951.22;5101116;28;20688;-53
2022/09/22 01:09:34;;;;;;;4.72;3.78;;;;;;;11.93;100.00;96943.44;5097220;28;20470;-56
2022/09/22 01:12:04;;;;;;;6.82;4.00;;;;;;;11.82;100.00;96939.09;5105731;28;20079;-53
2022/09/22 01:14:42;;;;;;;5.22;4.40;;;;;;;11.88;100.00;96935.94;5098382;28;20564;-56
2022/09/22 01:17:20;;;;;;;5.43;4.55;;;;;;;11.99;100.00;96925.22;5109995;27;20087;-57
2022/09/22 01:20:05;;;;;;;6.38;4.60;;;;;;;12.23;100.00;96930.03;5102587;27;20094;-56
2022/09/22 01:22:54;;;;;;;9.45;5.00;;;;;;;11.79;100.00;96926.16;5114344;27;21946;-53
2022/09/22 01:25:38;;;;;;;5.80;4.25;;;;;;;12.46;100.00;96919.94;5106888;27;20075;-53
2022/09/22 01:28:24;;;;;;;4.80;3.90;;;;;;;12.51;100.00;96925.63;5098471;28;20087;-53
2022/09/22 01:30:58;;;;;;;5.63;4.05;;;;;;;11.73;100.00;96932.84;5105029;27;20067;-52
2022/09/22 01:33:34;;;;;;;5.65;4.18;;;;;;;11.56;100.00;96931.75;5105076;27;20611;-52
2022/09/22 01:36:13;;;;;;;5.32;3.92;;;;;;;11.45;100.00;96939.78;5107955;27;20074;-54
2022/09/22 01:38:48;;;;;;;5.55;4.07;;;;;;;11.50;100.00;96932.31;5105928;28;20094;-56
2022/09/22 01:41:19;;;;;;;5.13;4.40;;;;;;;11.81;100.00;96924.22;5113975;27;20075;-59
2022/09/22 01:43:51;;;;;;;5.30;4.40;;;;;;;11.47;100.00;96932.59;5106825;27;20071;-53
2022/09/22 01:46:25;;;;;;;6.70;4.55;;;;;;;11.67;100.00;96922.84;5105076;27;20071;-52
2022/09/22 01:48:55;;;;;;;6.07;4.68;;;;;;;11.79;100.00;96918.25;5093196;28;20072;-52
2022/09/22 01:51:27;;;;;;;5.28;4.30;;;;;;;11.60;100.00;96913.81;5108252;27;20099;-58
2022/09/22 01:54:01;;;;;;;6.95;4.18;;;;;;;11.77;100.00;96922.84;5107166;27;20083;-52
2022/09/22 01:56:31;;;;;;;8.75;4.32;;;;;;;11.86;100.00;96920.22;5111106;27;20474;-55
2022/09/22 01:59:03;;;;;;;8.07;4.22;;;;;;;12.10;100.00;96914.47;5108070;27;20091;-53
2022/09/22 02:01:37;;;;;;;5.18;4.03;;;;;;;12.18;100.00;96923.47;5105405;28;20079;-57
2022/09/22 02:04:09;;;;;;;5.13;4.32;;;;;;;12.21;100.00;96921.38;5103917;27;20083;-57
2022/09/22 02:06:41;;;;;;;79.28;6.95;;;;;;;12.18;100.00;96921.69;5106058;27;20086;-53
2022/09/22 02:09:10;;;;;;;8.43;5.00;;;;;;;11.83;100.00;96917.81;5104741;28;20108;-54
2022/09/22 02:11:39;;;;;;;18.60;6.67;;;;;;;11.36;100.00;96935.38;5107506;27;20084;-56
2022/09/22 02:14:08;;;;;;;24.20;7.00;;;;;;;11.02;100.00;96925.16;5104886;28;20504;-57
2022/09/22 02:16:38;;;;;;;8.07;5.85;;;;;;;11.09;100.00;96925.47;5104942;27;20075;-53
2022/09/22 02:19:10;;;;;;;6.20;5.03;;;;;;;11.15;100.00;96930.19;5110059;27;20079;-57
2022/09/22 02:21:43;;;;;;;5.25;4.35;;;;;;;11.50;100.00;96927.03;5092470;28;20086;-57
2022/09/22 02:24:27;;;;;;;5.82;4.47;;;;;;;11.84;100.00;96926.63;5094340;27;20087;-52
2022/09/22 02:26:56;;;;;;;5.57;4.60;;;;;;;11.46;100.00;96935.34;5096344;27;20079;-52
2022/09/22 02:29:26;;;;;;;6.18;4.70;;;;;;;11.37;100.00;96931.75;5095748;27;20078;-53
2022/09/22 02:31:56;;;;;;;5.80;4.33;;;;;;;11.52;100.00;96922.41;5098798;27;20541;-53
2022/09/22 02:34:25;;;;;;;5.13;4.60;;;;;;;11.64;100.00;96925.78;5102724;27;20500;-54
2022/09/22 02:36:58;;;;;;;7.25;4.35;;;;;;;11.62;100.00;96927.72;5105259;28;20079;-55
2022/09/22 02:39:29;;;;;;;4.30;3.90;;;;;;;11.50;100.00;96919.09;5104877;27;20649;-55
2022/09/22 02:42:10;;;;;;;5.78;3.88;;;;;;;11.34;100.00;96919.63;5101120;27;20102;-57
2022/09/22 02:44:44;;;;;;;4.53;3.72;;;;;;;10.90;100.00;96919.16;5104028;27;20803;-57
2022/09/22 02:47:17;;;;;;;5.38;4.10;;;;;;;11.43;100.00;96920.63;5105252;27;20087;-57
2022/09/22 02:49:47;;;;;;;4.70;3.90;;;;;;;11.28;100.00;96930.75;5105659;27;20068;-56
2022/09/22 02:52:19;;;;;;;4.15;3.67;;;;;;;10.44;100.00;96930.25;5109083;28;20063;-55
2022/09/22 02:54:47;;;;;;;3.67;3.33;;;;;;;10.83;100.00;96922.47;5104825;27;20066;-56
2022/09/22 02:57:16;;;;;;;3.90;3.50;;;;;;;10.71;100.00;96927.03;5106376;27;20099;-52
2022/09/22 02:59:44;;;;;;;3.92;3.55;;;;;;;10.89;100.00;96925.41;5111353;27;20079;-54
2022/09/22 03:02:14;;;;;;;3.75;3.38;;;;;;;10.69;100.00;96929.78;5106224;27;20083;-56
2022/09/22 03:04:42;;;;;;;5.22;4.00;;;;;;;10.83;100.00;96930.38;5105050;27;20082;-56
2022/09/22 03:07:11;;;;;;;5.63;4.20;;;;;;;11.16;100.00;96929.22;5103945;27;20083;-54
2022/09/22 03:09:40;;;;;;;4.05;3.75;;;;;;;11.09;100.00;96931.56;5102372;27;20078;-55
2022/09/22 03:12:08;;;;;;;3.42;3.13;;;;;;;11.34;100.00;96932.00;5101056;27;20604;-56
2022/09/22 03:14:37;;;;;;;3.38;3.08;;;;;;;11.38;100.00;96925.47;5095992;27;20071;-57
2022/09/22 03:17:05;;;;;;;3.22;2.92;;;;;;;11.48;100.00;96921.03;5103985;27;20105;-54
2022/09/22 03:19:35;;;;;;;5.90;3.42;;;;;;;11.49;100.00;96929.78;5091502;27;20082;-58
2022/09/22 03:22:03;;;;;;;4.30;3.20;;;;;;;10.89;100.00;96930.69;5096807;27;20071;-55
2022/09/22 03:24:32;;;;;;;3.75;3.42;;;;;;;10.71;100.00;96927.03;5102600;27;20512;-53
2022/09/22 03:27:00;;;;;;;5.40;3.95;;;;;;;10.30;100.00;96926.16;5086721;28;20099;-55
2022/09/22 03:29:28;;;;;;;4.10;3.70;;;;;;;10.43;100.00;96924.16;5098514;27;20469;-56
2022/09/22 03:31:57;;;;;;;4.53;4.10;;;;;;;10.44;100.00;96919.72;5090800;27;20150;-55
2022/09/22 03:34:25;;;;;;;4.82;4.38;;;;;;;10.66;100.00;96924.78;5097026;27;20082;-54
2022/09/22 03:36:55;;;;;;;6.10;4.63;;;;;;;10.82;100.00;96920.81;5096239;28;20102;-55
2022/09/22 03:39:23;;;;;;;8.07;5.00;;;;;;;10.13;100.00;96929.38;5103242;27;20075;-56
2022/09/22 03:41:52;;;;;;;6.50;5.00;;;;;;;10.16;100.00;96924.66;5091803;27;20090;-57
2022/09/22 03:44:20;;;;;;;7.50;5.55;;;;;;;10.10;100.00;96929.63;5094723;28;20110;-54
2022/09/22 03:46:48;;;;;;;5.72;5.13;;;;;;;10.51;100.00;96923.47;5096173;28;20082;-56
2022/09/22 03:49:17;;;;;;;5.80;4.82;;;;;;;10.42;100.00;96914.53;5095406;27;20526;-57
2022/09/22 03:51:45;;;;;;;6.18;5.15;;;;;;;10.69;100.00;96916.59;5095721;27;20094;-56
2022/09/22 03:54:15;;;;;;;8.23;5.47;;;;;;;10.60;100.00;96914.78;5101807;28;20055;-50
2022/09/22 03:56:43;;;;;;;6.90;6.00;;;;;;;10.51;100.00;96915.56;5102310;27;20087;-57
2022/09/22 03:59:11;;;;;;;7.72;5.13;;;;;;;9.97;100.00;96919.28;5099764;27;20063;-54
2022/09/22 04:01:40;;;;;;;7.90;5.82;;;;;;;9.93;100.00;96912.59;5097117;28;20083;-56
2022/09/22 04:04:08;;;;;;;9.27;6.05;;;;;;;9.60;100.00;96916.25;5095171;27;20149;-55
2022/09/22 04:06:37;;;;;;;8.10;6.30;;;;;;;9.57;100.00;96916.53;5108834;27;20079;-53
2022/09/22 04:09:06;;;;;;;7.70;5.82;;;;;;;10.03;100.00;96913.50;5095787;28;20075;-52
2022/09/22 04:11:36;;;;;;;6.85;5.70;;;;;;;10.61;100.00;96913.81;5104544;28;20090;-55
2022/09/22 04:14:04;;;;;;;8.00;5.93;;;;;;;10.51;100.00;96918.22;5100749;28;20102;-57
2022/09/22 04:16:33;;;;;;;7.40;6.00;;;;;;;10.52;100.00;96916.41;5100487;28;20072;-55
2022/09/22 04:19:03;;;;;;;5.95;5.10;;;;;;;10.85;100.00;96915.28;5097168;28;20094;-54
2022/09/22 04:21:32;;;;;;;7.22;5.05;;;;;;;10.31;100.00;96917.28;5082320;28;20060;-58
2022/09/22 04:24:00;;;;;;;6.75;5.05;;;;;;;10.36;100.00;96911.63;5101847;28;20494;-55
2022/09/22 04:26:29;;;;;;;5.95;5.35;;;;;;;10.58;100.00;96906.16;5104483;27;20091;-57
2022/09/22 04:28:59;;;;;;;6.15;5.00;;;;;;;10.82;100.00;96915.53;5106879;28;20080;-56
2022/09/22 04:31:27;;;;;;;6.72;5.40;;;;;;;10.61;100.00;96918.25;5074895;28;20071;-52
2022/09/22 04:33:56;;;;;;;8.30;4.80;;;;;;;10.50;100.00;96918.34;5103966;28;20076;-55
2022/09/22 04:36:24;;;;;;;6.82;5.32;;;;;;;10.77;100.00;96915.09;5077790;28;20083;-57
2022/09/22 04:38:54;;;;;;;5.82;5.00;;;;;;;10.55;100.00;96916.13;5103552;28;20471;-57
2022/09/22 04:41:22;;;;;;;6.93;5.40;;;;;;;10.61;100.00;96926.16;5117124;27;20038;-56
2022/09/22 04:43:51;;;;;;;7.68;5.53;;;;;;;10.61;100.00;96927.00;5099446;28;20091;-54
2022/09/22 04:46:21;;;;;;;7.88;5.80;;;;;;;10.95;100.00;96929.31;5101894;28;20453;-56
2022/09/22 04:48:50;;;;;;;6.22;5.25;;;;;;;10.51;100.00;96933.19;5095712;28;20449;-57
2022/09/22 04:51:18;;;;;;;6.13;5.20;;;;;;;10.69;100.00;96936.88;5101839;28;20055;-55
2022/09/22 04:53:46;;;;;;;9.65;5.38;;;;;;;10.34;100.00;96939.91;5104257;27;20517;-52
2022/09/22 04:56:15;;;;;;;6.53;5.40;;;;;;;10.23;100.00;96939.00;5105192;27;20070;-56
2022/09/22 04:58:43;;;;;;;11.05;6.80;;;;;;;10.50;100.00;96945.56;5112267;27;20557;-56
2022/09/22 05:01:12;;;;;;;7.32;5.55;;;;;;;10.89;100.00;96941.22;5103870;27;20454;-58
2022/09/22 05:03:42;;;;;;;7.85;5.38;;;;;;;10.79;100.00;96942.19;5099802;28;20553;-56
2022/09/22 05:06:10;;;;;;;7.13;6.00;;;;;;;10.32;100.00;96941.84;5116284;27;20082;-55
2022/09/22 05:08:38;;;;;;;12.63;5.10;;;;;;;10.77;100.00;96931.78;5103174;27;20502;-52
2022/09/22 05:11:08;;;;;;;8.55;5.60;;;;;;;10.91;100.00;96941.13;5104175;27;20083;-55
2022/09/22 05:13:39;;;;;;;6.22;5.45;;;;;;;10.48;100.00;96949.28;5103842;27;20063;-55
2022/09/22 05:16:08;;;;;;;7.40;6.45;;;;;;;10.34;100.00;96943.38;5100891;27;20631;-57
2022/09/22 05:18:38;;;;;;;9.45;5.97;;;;;;;10.63;100.00;96948.81;5105085;27;20076;-53
2022/09/22 05:21:08;;;;;;;8.17;6.33;;;;;;;10.42;100.00;96948.00;5105771;27;20078;-54
2022/09/22 05:23:36;;;;;;;10.75;6.75;;;;;;;10.18;100.00;96945.63;5100242;28;20518;-54
2022/09/22 05:26:05;;;;;;;10.18;6.30;;;;;;;10.16;100.00;96944.94;5098899;27;20086;-51
2022/09/22 05:28:34;;;;;;;7.85;6.18;;;;;;;10.99;100.00;96951.81;5107388;27;20071;-54
2022/09/22 05:31:03;;;;;;;9.52;5.90;;;;;;;11.07;100.00;96953.78;5107363;27;20115;-56
2022/09/22 05:33:31;;;;;;;9.10;6.57;;;;;;;11.23;100.00;96956.75;5107044;27;20063;-55
2022/09/22 05:35:59;;;;;;;8.73;6.30;;;;;;;11.24;100.00;96954.94;5105481;27;20071;-53
2022/09/22 05:38:29;;;;;;;9.18;6.38;;;;;;;10.62;100.00;96962.94;5103846;27;20072;-52
2022/09/22 05:40:58;;;;;;;8.82;5.63;;;;;;;10.99;100.00;96956.28;5106608;27;20082;-52
2022/09/22 05:43:26;;;;;;;10.73;6.60;;;;;;;11.11;100.00;96965.72;5103949;27;20060;-55
2022/09/22 05:45:54;;;;;;;10.23;6.78;;;;;;;10.96;100.00;96970.56;5103591;27;20145;-54
2022/09/22 05:48:23;;;;;;;11.63;8.35;;;;;;;10.45;100.00;96971.47;5104945;27;20083;-53
2022/09/22 05:50:58;;;;;;;11.02;8.75;;;;;;;11.62;100.00;96965.53;5104125;27;20462;-54
2022/09/22 05:53:27;;;;;;;13.70;9.13;;;;;;;11.30;100.00;96970.22;5099664;27;20091;-50
2022/09/22 05:55:58;;;;;;;14.02;8.43;;;;;;;11.54;100.00;96965.38;5107227;27;20533;-54
2022/09/22 05:58:27;;;;;;;12.75;8.48;;;;;;;11.35;100.00;96968.84;5103238;27;20477;-58
2022/09/22 06:00:56;;;;;;;11.15;7.40;;;;;;;11.43;100.00;96960.25;5113940;27;20106;-54
2022/09/22 06:03:24;;;;;;;10.02;7.10;;;;;;;11.14;100.00;96970.75;5105418;28;20939;-56
2022/09/22 06:05:53;;;;;;;10.80;7.00;;;;;;;10.31;100.00;96969.19;5101909;28;20450;-50
2022/09/22 06:08:21;;;;;;;13.65;7.40;;;;;;;10.88;100.00;96965.13;5099272;28;20067;-53
2022/09/22 06:10:50;;;;;;;11.85;7.90;;;;;;;10.81;100.00;96970.09;5104056;28;20083;-58
2022/09/22 06:13:20;;;;;;;11.23;6.47;;;;;;;10.89;100.00;96967.63;5101257;27;20098;-49
2022/09/22 06:15:48;;;;;;;10.47;6.80;;;;;;;10.77;100.00;96976.63;5113104;27;20070;-53
2022/09/22 06:18:17;;;;;;;11.32;6.10;;;;;;;11.13;100.00;96969.09;5104092;28;20093;-57
2022/09/22 06:20:55;;;;;;;11.10;6.43;;;;;;;11.68;100.00;96965.97;5107379;27;20083;-54
2022/09/22 06:23:25;;;;;;;10.90;6.80;;;;;;;11.99;100.00;96956.91;5106015;27;20086;-57
2022/09/22 06:25:57;;;;;;;10.25;7.32;;;;;;;12.48;100.00;96949.72;5109727;27;20473;-55
2022/09/22 06:28:26;;;;;;;8.93;5.63;;;;;;;12.43;100.00;96946.69;5105742;27;20079;-59
2022/09/22 06:30:58;;;;;;;14.47;9.27;;;;;;;12.67;100.00;96945.34;5098444;27;20079;-55
2022/09/22 06:33:27;;;;;;;6.13;5.00;;;;;;;12.00;100.00;96950.66;5103865;28;20105;-56
2022/09/22 06:35:56;;;;;;;5.20;4.70;;;;;;;11.46;100.00;96964.41;5107124;27;20079;-52
2022/09/22 06:38:25;;;;;;;5.50;4.88;;;;;;;12.11;100.00;96944.38;5108402;27;20143;-55
2022/09/22 06:40:59;;;;;;;5.50;4.95;;;;;;;12.66;100.00;96941.84;5105324;27;20090;-56
2022/09/22 06:43:29;;;;;;;5.72;4.90;;;;;;;12.89;100.00;96946.75;5104270;28;20090;-49
2022/09/22 06:46:01;;;;;;;6.07;5.27;;;;;;;12.85;100.00;96938.28;5107501;27;20084;-56
2022/09/22 06:48:30;;;;;;;5.60;5.00;;;;;;;12.56;100.00;96947.19;5108467;27;20071;-56
2022/09/22 06:50:59;;;;;;;6.72;5.28;;;;;;;12.63;100.00;96947.44;5103407;27;20063;-55
2022/09/22 06:53:27;;;;;;;7.78;5.40;;;;;;;13.41;100.00;96941.75;5105602;27;20086;-53
2022/09/22 06:55:57;;;;;;;6.90;5.72;;;;;;;13.59;100.00;96939.91;5107610;27;20493;-57
2022/09/22 06:58:27;;;;;;;11.35;6.30;;;;;;;13.52;100.00;96939.72;5099454;27;20087;-59
2022/09/22 07:01:02;;;;;;;9.45;6.40;;;;;;;13.46;100.00;96945.63;5088929;28;20067;-55
2022/09/22 07:03:39;;;;;;;;;;;;;;;13.58;100.00;96950.69;5109364;27;20489;-55
2022/09/22 07:06:08;;;;;;;8.25;6.68;;;;;;;13.59;100.00;96949.69;5103484;28;19962;-53
2022/09/22 07:08:38;;;;;;;9.98;7.47;;;;;;;13.58;100.00;96945.38;5106505;27;20080;-53
2022/09/22 07:11:07;;;;;;;11.85;6.55;;;;;;;14.91;100.00;96937.19;5109484;27;20094;-55
2022/09/22 07:13:38;;;;;;;8.55;7.00;;;;;;;14.05;100.00;96945.13;5103866;28;20083;-55
2022/09/22 07:16:10;;;;;;;8.35;7.32;;;;;;;13.93;100.00;96944.53;5100967;27;20129;-56
2022/09/22 07:18:40;;;;;;;9.70;7.88;;;;;;;14.52;100.00;96936.81;5102488;27;20459;-58
2022/09/22 07:21:10;;;;;;;10.65;6.80;;;;;;;15.18;100.00;96936.97;5106028;27;20097;-55
2022/09/22 07:23:40;;;;;;;10.38;7.45;;;;;;;15.19;100.00;96940.44;5099589;28;20669;-54
2022/09/22 07:26:11;;;;;;;8.57;6.80;;;;;;;15.72;100.00;96930.44;5102666;28;20082;-55
2022/09/22 07:28:39;;;;;;;9.25;7.55;;;;;;;14.87;100.00;96942.00;5100094;28;20079;-54
2022/09/22 07:31:11;;;;;;;8.00;6.53;;;;;;;15.73;100.00;96940.94;5100975;28;20079;-55
2022/09/22 07:33:41;;;;;;;9.98;6.55;;;;;;;15.59;100.00;96944.19;5103561;27;20082;-55
2022/09/22 07:36:12;;;;;;;8.00;6.80;;;;;;;15.73;100.00;96940.94;5097248;28;20063;-56
2022/09/22 07:38:42;;;;;;;10.20;6.20;;;;;;;16.65;100.00;96932.66;5104621;27;20146;-57
2022/09/22 07:41:12;;;;;;;9.77;7.53;;;;;;;17.09;100.00;96933.03;5102373;27;20078;-57
2022/09/22 07:43:41;;;;;;;8.55;6.53;;;;;;;17.47;94.38;96923.31;5106350;27;20460;-56
2022/09/22 07:46:12;;;;;;;6.72;5.88;;;;;;;16.74;97.98;96937.84;5106661;27;20056;-56
2022/09/22 07:48:45;;;;;;;;;;;;;;;17.27;90.29;96930.09;5106351;27;20103;-57
2022/09/22 07:51:18;;;;;;;8.15;5.47;;;;;;;16.79;100.00;96929.31;5108346;27;19966;-59
2022/09/22 07:53:48;;;;;;;8.75;4.88;;;;;;;17.05;96.70;96927.22;5103792;28;20074;-57
2022/09/22 07:56:19;;;;;;;6.40;4.90;;;;;;;17.23;89.46;96928.78;5102612;28;20132;-54
2022/09/22 07:58:49;;;;;;;5.18;4.68;;;;;;;17.90;80.68;96923.72;5106253;28;20078;-56
2022/09/22 08:01:19;;;;;;;9.25;4.72;;;;;;;16.49;100.00;96934.38;5086698;28;20142;-55
2022/09/22 08:03:49;;;;;;;;;;;;;;;17.35;91.93;96929.25;5102818;27;20047;-54
2022/09/22 08:06:19;;;;;;;8.40;4.40;;;;;;;17.96;83.41;96930.16;5082782;28;19962;-57
2022/09/22 08:08:55;;;;;;;6.63;4.50;;;;;;;17.63;89.84;96926.91;5121471;27;20071;-54
2022/09/22 08:11:26;;;;;;;6.80;4.70;;;;;;;17.44;93.68;96934.34;5098823;27;20055;-56
2022/09/22 08:13:56;;;;;;;6.38;4.55;;;;;;;17.65;91.84;96927.53;5110144;27;20149;-57
2022/09/22 08:16:28;;;;;;;5.35;4.18;;;;;;;17.61;94.55;96934.25;5105975;28;20087;-56
2022/09/22 08:18:57;;;;;;;6.93;4.72;;;;;;;17.56;94.35;96942.78;5100692;28;20078;-56
2022/09/22 08:21:28;;;;;;;5.25;4.50;;;;;;;17.83;93.51;96943.31;5112874;28;20067;-55
2022/09/22 08:23:58;;;;;;;7.00;4.50;;;;;;;16.86;100.00;96954.25;5108194;27;20077;-55
2022/09/22 08:26:26;;;;;;;6.30;4.63;;;;;;;17.00;100.00;96945.56;5098010;27;20071;-49
2022/09/22 08:28:56;;;;;;;7.15;5.22;;;;;;;17.36;100.00;96938.91;5099467;28;20617;-54
2022/09/22 08:31:26;;;;;;;9.80;4.65;;;;;;;17.99;93.07;96940.47;5089640;28;20047;-53
2022/09/22 08:33:56;;;;;;;5.53;4.60;;;;;;;18.30;90.15;96939.56;5099742;28;20540;-55
2022/09/22 08:36:26;;;;;;;5.25;4.53;;;;;;;18.48;89.12;96922.19;5105635;28;20094;-54
2022/09/22 08:38:55;;;;;;;7.22;5.13;;;;;;;17.60;99.02;96932.59;5104982;28;20568;-55
2022/09/22 08:41:30;;;;;;;8.20;5.47;;;;;;;18.64;88.04;96926.50;5105706;28;20106;-59
2022/09/22 08:44:01;;;;;;;8.63;5.25;;;;;;;19.07;85.55;96925.91;5097114;28;20094;-56
2022/09/22 08:46:32;;;;;;;7.45;5.10;;;;;;;18.67;87.32;96926.16;5093540;28;20079;-54
2022/09/22 08:51:55;;;;;;;6.53;3.97;;;;;;;18.19;86.86;96928.31;5102066;28;20066;-55
2022/09/22 08:54:26;;;;;;;6.85;4.25;;;;;;;19.63;76.02;96912.78;5101662;28;20097;-56
2022/09/22 08:57:02;;;;;;;5.38;4.38;;;;;;;19.28;76.45;96923.28;5101707;28;20564;-53
2022/09/22 08:59:34;;;;;;;6.65;4.22;;;;;;;19.33;82.47;96920.03;5103898;28;20067;-56
2022/09/22 09:02:25;;;;;;;7.30;3.85;;;;;;;18.85;77.92;96916.97;5098344;28;20350;-56
2022/09/22 09:05:03;;;;;;;;;;;;;;;18.70;83.09;96919.63;5101354;28;20470;-53
2022/09/22 09:07:42;;;;;;;5.97;3.20;;;;;;;18.95;81.95;96918.34;5096408;28;19955;-55
2022/09/22 09:10:24;;;;;;;6.47;3.57;;;;;;;18.50;84.98;96920.16;5091372;28;20071;-55
2022/09/22 09:13:01;;;;;;;4.88;3.20;;;;;;;19.14;78.24;96911.59;5102769;28;20105;-55
2022/09/22 09:15:40;;;;;;;6.50;3.53;;;;;;;18.90;84.49;96911.91;5101348;28;20607;-57
2022/09/22 09:18:15;;;;;;;3.70;3.20;;;;;;;19.53;73.92;96909.56;5079617;28;20047;-54
2022/09/22 09:20:45;;;;;;;7.60;4.03;;;;;;;18.82;75.37;96910.13;5100019;28;20525;-55
2022/09/22 09:23:17;;;;;;;5.45;3.55;;;;;;;18.90;80.00;96910.06;5099792;28;20082;-56
2022/09/22 09:25:51;;;;;;;6.85;3.90;;;;;;;19.64;71.76;96907.22;5096733;28;20048;-57
2022/09/22 09:28:21;;;;;;;4.63;3.70;;;;;;;19.36;70.50;96915.13;5108855;28;20052;-54
2022/09/22 09:31:01;;;;;;;3.88;3.10;;;;;;;19.58;72.22;96913.31;5102814;28;20080;-56
2022/09/22 09:33:33;;;;;;;5.53;2.90;;;;;;;19.69;69.53;96904.00;5099942;28;20075;-52
2022/09/22 09:36:03;;;;;;;5.65;3.47;;;;;;;20.19;62.47;96907.50;5104786;28;20080;-55
2022/09/22 09:38:36;;;;;;;4.78;3.15;;;;;;;20.11;64.72;96907.66;5087915;28;20042;-53
2022/09/22 09:41:13;;;;;;;3.97;3.20;;;;;;;19.37;68.23;96915.94;5091503;28;20112;-55
2022/09/22 09:43:44;;;;;;;3.53;3.08;;;;;;;18.60;70.84;96900.38;5081359;28;20445;-53
2022/09/22 09:46:18;;;;;;;5.13;3.28;;;;;;;19.83;71.11;96896.91;5105124;27;20579;-56
2022/09/22 09:49:01;;;;;;;3.70;3.28;;;;;;;19.93;64.60;96902.78;5088475;28;20063;-54
2022/09/22 09:51:30;;;;;;;3.40;2.75;;;;;;;20.58;61.74;96895.47;5098285;27;20051;-52
2022/09/22 09:54:04;;;;;;;3.00;2.70;;;;;;;20.75;58.26;96890.59;5105815;27;20075;-50
2022/09/22 09:56:35;;;;;;;3.15;2.50;;;;;;;20.49;55.05;96896.59;5087679;27;20078;-52
2022/09/22 10:01:53;;;;;;;2.95;1.92;;;;;;;20.17;55.55;96888.16;5107301;27;20078;-55
2022/09/22 10:04:28;;;;;;;3.72;2.53;;;;;;;21.08;53.18;96880.84;5108642;27;20071;-53
2022/09/22 10:07:11;;;;;;;2.83;2.20;;;;;;;21.16;50.35;96877.16;5099819;27;20067;-56
2022/09/22 10:09:40;;;;;;;3.08;2.30;;;;;;;20.96;52.10;96881.63;5098461;27;20078;-53
2022/09/22 10:12:21;;;;;;;3.83;2.22;;;;;;;;;;5105052;27;20079;-56
2022/09/22 10:14:51;;;;;;;3.10;1.83;;;;;;;20.80;49.53;96875.56;5100852;27;20550;-53
2022/09/22 10:17:21;;;;;;;3.85;1.90;;;;;;;20.42;51.10;96872.44;5088020;28;20093;-58
2022/09/22 10:19:51;;;;;;;3.60;1.90;;;;;;;21.21;49.78;96863.97;5103897;27;20071;-57
2022/09/22 10:22:25;;;;;;;3.60;2.03;;;;;;;21.16;48.73;96871.78;5101830;27;20083;-57
2022/09/22 10:24:57;;;;;;;2.10;1.70;;;;;;;20.41;49.66;96868.13;5098119;27;20082;-54
2022/09/22 10:27:27;;;;;;;1.67;1.40;;;;;;;21.30;47.22;96869.97;5115488;27;20075;-58
2022/09/22 10:30:21;;;;;;;2.45;1.60;;;;;;;20.78;46.84;96871.44;5087174;28;20090;-55
2022/09/22 10:33:11;;;;;;;1.88;1.65;;;;;;;20.96;47.23;96862.88;5102379;27;20060;-55
2022/09/22 10:35:41;;;;;;;2.33;1.77;;;;;;;20.79;47.71;96867.75;5110976;27;20596;-50
2022/09/22 10:38:20;;;;;;;4.15;1.70;;;;;;;21.33;45.82;96861.53;5095944;27;20524;-54
2022/09/22 10:40:55;;;;;;;2.05;1.63;;;;;;;20.67;45.48;96863.97;5105817;27;20098;-56
2022/09/22 10:43:37;;;;;;;3.97;1.42;;;;;;;21.87;43.25;96859.78;5118024;27;20134;-52
2022/09/22 10:46:17;;;;;;;1.70;1.30;;;;;;;22.50;43.63;96860.16;5099395;28;20121;-53
2022/09/22 10:48:49;;;;;;;1.67;1.40;;;;;;;20.59;44.10;96860.41;5104401;27;20097;-55
2022/09/22 10:51:27;;;;;;;1.63;1.52;;;;;;;21.90;42.46;96859.38;5100376;27;20067;-55
2022/09/22 10:54:15;;;;;;;2.13;1.85;;;;;;;21.56;42.70;96850.47;5092449;28;20074;-57
2022/09/22 10:56:46;;;;;;;2.28;1.40;;;;;;;22.50;41.91;96860.16;5106078;27;20082;-51
2022/09/22 10:59:37;;;;;;;2.05;1.40;;;;;;;22.41;44.29;96851.53;5099299;27;20143;-53
2022/09/22 11:02:33;;;;;;;2.60;1.40;;;;;;;21.83;40.70;96861.25;5095491;27;20072;-57
2022/09/22 11:12:14;;;;;;;2.33;1.52;;;;;;;21.53;41.89;96858.91;5095852;28;20430;-52
2022/09/22 11:13:58;;;;;;;1.95;1.70;;;;;;;22.22;41.21;96857.75;5096133;27;20098;-50
2022/09/22 11:16:40;;;;;;;1.98;1.60;;;;;;;21.88;41.69;96862.25;5089059;27;20417;-53
2022/09/22 11:19:30;;;;;;;2.35;1.50;;;;;;;21.91;41.63;96856.47;5100108;27;20491;-53
2022/09/22 11:22:12;;;;;;;2.40;1.75;;;;;;;21.93;41.28;96849.06;5100664;27;20075;-53
2022/09/22 11:25:02;;;;;;;2.58;1.50;;;;;;;22.97;40.74;96845.56;5107504;27;20079;-54
2022/09/22 11:27:42;;;;;;;2.13;1.80;;;;;;;22.07;40.76;96851.75;5094024;28;20529;-56
2022/09/22 11:30:19;;;;;;;7.95;6.50;;;;;;;21.96;40.95;96847.81;5107018;27;20091;-54
2022/09/22 11:33:12;;;;;;;2.70;1.88;;;;;;;22.53;38.42;96849.00;5098604;28;20075;-53
2022/09/22 11:36:00;;;;;;;3.78;1.80;;;;;;;22.80;40.73;96846.25;5106358;27;20079;-50
2022/09/22 11:38:52;;;;;;;2.85;1.95;;;;;;;21.92;40.86;96847.41;5099667;27;20094;-54
2022/09/22 11:41:28;;;;;;;2.13;1.60;;;;;;;22.32;39.65;96844.72;5082271;28;20075;-51
2022/09/22 11:44:28;;;;;;;2.25;2.00;;;;;;;21.80;41.53;96844.50;5099852;27;20510;-56
2022/09/22 11:47:12;;;;;;;2.15;1.95;;;;;;;22.84;39.32;96834.84;5097441;27;20071;-56
2022/09/22 11:49:55;;;;;;;2.20;1.90;;;;;;;22.59;39.25;96841.97;5099669;27;20238;-56
2022/09/22 11:52:31;;;;;;;2.90;2.03;;;;;;;22.44;39.82;96834.97;5100690;28;20083;-52
2022/09/22 11:55:13;;;;;;;2.35;2.15;;;;;;;21.99;40.65;96825.94;5101915;27;20090;-53
2022/09/22 11:57:46;;;;;;;2.58;2.08;;;;;;;21.71;42.13;96829.66;5102958;27;20044;-52
2022/09/22 12:00:17;;;;;;;2.58;2.20;;;;;;;22.59;40.52;96828.53;5102006;27;20672;-53
2022/09/22 12:02:49;;;;;;;2.92;2.38;;;;;;;23.58;39.02;96809.22;5096432;27;20070;-56
2022/09/22 12:05:20;;;;;;;2.75;1.98;;;;;;;23.40;39.05;96809.97;5100754;27;20090;-52